OIZJ  Jask  Airport

Jask, Iran

Add Bookmark
ICAO OIZJ
Type Airport
Status Operational
Latitude
25° 39' 12" N
25.653601
Longitude
57° 47' 57" E
57.799301
Local (DST + 5) UTC (GMT + 4)
Apr 27, 2015 11:01 Apr 27, 2015 18:31
Sunrise-Sunset Local UTC
Begin Civil Twilight 05:40 01:10
Sunrise 06:04 01:34
Sunset 07:08 14:38
End Civil Twilight 07:32 15:02
VFR
VFR
MVFR
MVFR
IFR
VFR
LIFR
VFR
Unknown
Unavailable

Current Weather

METAR Observed MVFR
OIZJ 271800Z 34006KT 6000 NSC 30/20 Q1008 Mon, Apr 27, 2015 @ 18:00 UTC
(31 Minutes ago)
Marginal Visual Flight Rules
Wind Visibility Conditions
340° at 6 knots (11 kph) 6,003 m
  • No significant weather
Temperatures Readings Precipitation
Current Temp
30°C
86°F
Dewpoint
20°C
68°F
Heat Index
32°C
89°
Humidity 55%
Altimeter 29.76" Hg
Sea Level Pressure 1,008 mb
Field Elevation
4 m
13 ft
None Recorded
-
-

CheckWX.com is intended as a tool to help pilots better visualize weather data. It is not intended as a substitute for an official weather briefing obtained from a Flight Service Station. CheckWX.com does not meet the FAA requirements for an official pre-flight weather briefing. Therefore, it's important that pilots still call and obtain an official FSS pre-flight weather briefing.

© 2007-2015 CheckWX.com
18:31:04 UTC